sensor_id;sensor_type;location;lat;lon;timestamp;P1;durP1;ratioP1;P2;durP2;ratioP2
49610;SDS011;35515;48.766;9.176;2022-11-20T00:00:03;8.82;;;4.40;;
49610;SDS011;35515;48.766;9.176;2022-11-20T00:02:30;5.80;;;4.05;;
49610;SDS011;35515;48.766;9.176;2022-11-20T00:04:56;8.98;;;4.35;;
49610;SDS011;35515;48.766;9.176;2022-11-20T00:07:23;6.78;;;4.28;;
49610;SDS011;35515;48.766;9.176;2022-11-20T00:09:51;6.85;;;4.78;;
49610;SDS011;35515;48.766;9.176;2022-11-20T00:12:17;6.65;;;4.07;;
49610;SDS011;35515;48.766;9.176;2022-11-20T00:14:44;5.72;;;3.53;;
49610;SDS011;35515;48.766;9.176;2022-11-20T00:17:10;7.07;;;4.20;;
49610;SDS011;35515;48.766;9.176;2022-11-20T00:19:37;5.90;;;3.33;;
49610;SDS011;35515;48.766;9.176;2022-11-20T00:22:03;6.93;;;4.40;;
49610;SDS011;35515;48.766;9.176;2022-11-20T00:24:30;5.43;;;3.70;;
49610;SDS011;35515;48.766;9.176;2022-11-20T00:26:58;5.30;;;3.78;;
49610;SDS011;35515;48.766;9.176;2022-11-20T00:29:24;6.30;;;4.00;;
49610;SDS011;35515;48.766;9.176;2022-11-20T00:31:51;4.35;;;3.63;;
49610;SDS011;35515;48.766;9.176;2022-11-20T00:34:17;4.80;;;3.53;;
49610;SDS011;35515;48.766;9.176;2022-11-20T00:36:44;5.60;;;3.58;;
49610;SDS011;35515;48.766;9.176;2022-11-20T00:39:10;6.07;;;3.60;;
49610;SDS011;35515;48.766;9.176;2022-11-20T00:41:37;5.55;;;3.67;;
49610;SDS011;35515;48.766;9.176;2022-11-20T00:44:05;8.93;;;3.60;;
49610;SDS011;35515;48.766;9.176;2022-11-20T00:46:31;5.95;;;3.55;;
49610;SDS011;35515;48.766;9.176;2022-11-20T00:48:58;5.55;;;3.80;;
49610;SDS011;35515;48.766;9.176;2022-11-20T00:51:25;4.60;;;3.00;;
49610;SDS011;35515;48.766;9.176;2022-11-20T00:53:54;3.70;;;3.10;;
49610;SDS011;35515;48.766;9.176;2022-11-20T00:56:21;6.32;;;3.67;;
49610;SDS011;35515;48.766;9.176;2022-11-20T00:58:48;4.78;;;3.63;;
49610;SDS011;35515;48.766;9.176;2022-11-20T01:01:17;5.85;;;3.63;;
49610;SDS011;35515;48.766;9.176;2022-11-20T01:03:45;3.97;;;2.95;;
49610;SDS011;35515;48.766;9.176;2022-11-20T01:06:14;3.67;;;3.00;;
49610;SDS011;35515;48.766;9.176;2022-11-20T01:08:42;4.75;;;3.00;;
49610;SDS011;35515;48.766;9.176;2022-11-20T01:11:11;3.33;;;2.80;;
49610;SDS011;35515;48.766;9.176;2022-11-20T01:13:39;5.35;;;3.30;;
49610;SDS011;35515;48.766;9.176;2022-11-20T01:16:07;5.15;;;3.50;;
49610;SDS011;35515;48.766;9.176;2022-11-20T01:18:39;4.72;;;3.05;;
49610;SDS011;35515;48.766;9.176;2022-11-20T01:21:08;4.60;;;2.95;;
49610;SDS011;35515;48.766;9.176;2022-11-20T01:23:37;4.70;;;3.22;;
49610;SDS011;35515;48.766;9.176;2022-11-20T01:26:06;6.05;;;2.75;;
49610;SDS011;35515;48.766;9.176;2022-11-20T01:28:34;4.57;;;3.00;;
49610;SDS011;35515;48.766;9.176;2022-11-20T01:31:01;3.95;;;3.17;;
49610;SDS011;35515;48.766;9.176;2022-11-20T01:33:36;4.93;;;3.22;;
49610;SDS011;35515;48.766;9.176;2022-11-20T01:36:04;3.60;;;2.80;;
49610;SDS011;35515;48.766;9.176;2022-11-20T01:38:31;4.15;;;2.63;;
49610;SDS011;35515;48.766;9.176;2022-11-20T01:40:58;5.63;;;2.65;;
49610;SDS011;35515;48.766;9.176;2022-11-20T01:43:25;4.28;;;2.50;;
49610;SDS011;35515;48.766;9.176;2022-11-20T01:46:02;3.65;;;2.80;;
49610;SDS011;35515;48.766;9.176;2022-11-20T01:48:40;3.95;;;2.55;;
49610;SDS011;35515;48.766;9.176;2022-11-20T01:51:18;3.83;;;3.15;;
49610;SDS011;35515;48.766;9.176;2022-11-20T01:53:49;4.60;;;3.58;;
49610;SDS011;35515;48.766;9.176;2022-11-20T01:56:17;5.85;;;3.58;;
49610;SDS011;35515;48.766;9.176;2022-11-20T01:58:45;4.55;;;3.13;;
49610;SDS011;35515;48.766;9.176;2022-11-20T02:01:15;6.20;;;3.40;;
49610;SDS011;35515;48.766;9.176;2022-11-20T02:03:42;4.85;;;3.20;;
49610;SDS011;35515;48.766;9.176;2022-11-20T02:06:11;5.13;;;3.03;;
49610;SDS011;35515;48.766;9.176;2022-11-20T02:08:44;6.50;;;3.22;;
49610;SDS011;35515;48.766;9.176;2022-11-20T02:11:11;4.63;;;3.10;;
49610;SDS011;35515;48.766;9.176;2022-11-20T02:13:38;4.97;;;2.85;;
49610;SDS011;35515;48.766;9.176;2022-11-20T02:16:11;5.03;;;3.33;;
49610;SDS011;35515;48.766;9.176;2022-11-20T02:18:46;3.78;;;2.95;;
49610;SDS011;35515;48.766;9.176;2022-11-20T02:21:16;5.18;;;3.55;;
49610;SDS011;35515;48.766;9.176;2022-11-20T02:24:01;4.50;;;2.92;;
49610;SDS011;35515;48.766;9.176;2022-11-20T02:26:31;4.95;;;2.97;;
49610;SDS011;35515;48.766;9.176;2022-11-20T02:29:00;5.03;;;3.10;;
49610;SDS011;35515;48.766;9.176;2022-11-20T02:31:28;3.60;;;2.88;;
49610;SDS011;35515;48.766;9.176;2022-11-20T02:33:55;4.10;;;3.03;;
49610;SDS011;35515;48.766;9.176;2022-11-20T02:36:23;4.68;;;3.53;;
49610;SDS011;35515;48.766;9.176;2022-11-20T02:38:52;3.85;;;3.20;;
49610;SDS011;35515;48.766;9.176;2022-11-20T02:41:20;3.47;;;2.90;;
49610;SDS011;35515;48.766;9.176;2022-11-20T02:43:47;3.83;;;3.15;;
49610;SDS011;35515;48.766;9.176;2022-11-20T02:46:13;7.88;;;3.20;;
49610;SDS011;35515;48.766;9.176;2022-11-20T02:48:40;4.20;;;3.00;;
49610;SDS011;35515;48.766;9.176;2022-11-20T02:51:07;5.43;;;2.88;;
49610;SDS011;35515;48.766;9.176;2022-11-20T02:53:33;5.15;;;2.90;;
49610;SDS011;35515;48.766;9.176;2022-11-20T02:56:03;4.25;;;3.20;;
49610;SDS011;35515;48.766;9.176;2022-11-20T02:58:31;4.30;;;3.35;;
49610;SDS011;35515;48.766;9.176;2022-11-20T03:00:58;4.05;;;3.15;;
49610;SDS011;35515;48.766;9.176;2022-11-20T03:03:24;4.18;;;3.28;;
49610;SDS011;35515;48.766;9.176;2022-11-20T03:05:51;4.20;;;3.10;;
49610;SDS011;35515;48.766;9.176;2022-11-20T03:08:17;3.95;;;3.05;;
49610;SDS011;35515;48.766;9.176;2022-11-20T03:10:44;4.72;;;3.50;;
49610;SDS011;35515;48.766;9.176;2022-11-20T03:13:10;4.50;;;3.45;;
49610;SDS011;35515;48.766;9.176;2022-11-20T03:15:38;4.75;;;3.15;;
49610;SDS011;35515;48.766;9.176;2022-11-20T03:18:05;5.65;;;3.58;;
49610;SDS011;35515;48.766;9.176;2022-11-20T03:20:32;4.63;;;3.40;;
49610;SDS011;35515;48.766;9.176;2022-11-20T03:22:59;4.82;;;3.42;;
49610;SDS011;35515;48.766;9.176;2022-11-20T03:25:26;4.90;;;3.40;;
49610;SDS011;35515;48.766;9.176;2022-11-20T03:27:53;4.85;;;3.85;;
49610;SDS011;35515;48.766;9.176;2022-11-20T03:30:20;5.43;;;3.92;;
49610;SDS011;35515;48.766;9.176;2022-11-20T03:32:48;5.15;;;3.67;;
49610;SDS011;35515;48.766;9.176;2022-11-20T03:35:14;5.60;;;3.78;;
49610;SDS011;35515;48.766;9.176;2022-11-20T03:37:41;6.13;;;3.78;;
49610;SDS011;35515;48.766;9.176;2022-11-20T03:40:08;7.55;;;3.45;;
49610;SDS011;35515;48.766;9.176;2022-11-20T03:42:35;5.45;;;3.47;;
49610;SDS011;35515;48.766;9.176;2022-11-20T03:45:14;4.60;;;3.50;;
49610;SDS011;35515;48.766;9.176;2022-11-20T03:47:41;5.75;;;3.67;;
49610;SDS011;35515;48.766;9.176;2022-11-20T03:50:10;5.18;;;3.45;;
49610;SDS011;35515;48.766;9.176;2022-11-20T03:52:38;3.95;;;3.55;;
49610;SDS011;35515;48.766;9.176;2022-11-20T03:55:05;5.20;;;4.07;;
49610;SDS011;35515;48.766;9.176;2022-11-20T03:57:32;4.65;;;3.30;;
49610;SDS011;35515;48.766;9.176;2022-11-20T03:59:59;5.18;;;3.67;;
49610;SDS011;35515;48.766;9.176;2022-11-20T04:02:25;5.00;;;3.72;;
49610;SDS011;35515;48.766;9.176;2022-11-20T04:04:52;5.38;;;3.47;;
49610;SDS011;35515;48.766;9.176;2022-11-20T04:07:20;4.28;;;3.88;;
49610;SDS011;35515;48.766;9.176;2022-11-20T04:09:46;6.18;;;3.90;;
49610;SDS011;35515;48.766;9.176;2022-11-20T04:12:13;6.45;;;4.32;;
49610;SDS011;35515;48.766;9.176;2022-11-20T04:14:39;5.55;;;3.83;;
49610;SDS011;35515;48.766;9.176;2022-11-20T04:17:06;4.70;;;3.20;;
49610;SDS011;35515;48.766;9.176;2022-11-20T04:19:32;4.38;;;3.45;;
49610;SDS011;35515;48.766;9.176;2022-11-20T04:21:59;4.40;;;3.40;;
49610;SDS011;35515;48.766;9.176;2022-11-20T04:24:27;4.50;;;3.45;;
49610;SDS011;35515;48.766;9.176;2022-11-20T04:26:53;4.68;;;3.72;;
49610;SDS011;35515;48.766;9.176;2022-11-20T04:29:20;4.78;;;3.90;;
49610;SDS011;35515;48.766;9.176;2022-11-20T04:31:46;6.32;;;3.80;;
49610;SDS011;35515;48.766;9.176;2022-11-20T04:34:13;4.40;;;3.88;;
49610;SDS011;35515;48.766;9.176;2022-11-20T04:36:39;4.65;;;3.70;;
49610;SDS011;35515;48.766;9.176;2022-11-20T04:39:11;6.50;;;3.90;;
49610;SDS011;35515;48.766;9.176;2022-11-20T04:41:40;4.60;;;3.35;;
49610;SDS011;35515;48.766;9.176;2022-11-20T04:44:07;5.22;;;3.75;;
49610;SDS011;35515;48.766;9.176;2022-11-20T04:46:34;6.20;;;4.18;;
49610;SDS011;35515;48.766;9.176;2022-11-20T04:49:02;6.20;;;4.40;;
49610;SDS011;35515;48.766;9.176;2022-11-20T04:51:29;5.20;;;3.88;;
49610;SDS011;35515;48.766;9.176;2022-11-20T04:53:56;5.65;;;3.67;;
49610;SDS011;35515;48.766;9.176;2022-11-20T04:56:22;5.45;;;3.85;;
49610;SDS011;35515;48.766;9.176;2022-11-20T04:58:53;5.95;;;3.90;;
49610;SDS011;35515;48.766;9.176;2022-11-20T05:01:20;4.88;;;4.13;;
49610;SDS011;35515;48.766;9.176;2022-11-20T05:03:48;4.28;;;3.50;;
49610;SDS011;35515;48.766;9.176;2022-11-20T05:06:16;4.97;;;3.17;;
49610;SDS011;35515;48.766;9.176;2022-11-20T05:08:43;4.95;;;3.67;;
49610;SDS011;35515;48.766;9.176;2022-11-20T05:11:10;5.90;;;4.07;;
49610;SDS011;35515;48.766;9.176;2022-11-20T05:13:38;5.97;;;3.90;;
49610;SDS011;35515;48.766;9.176;2022-11-20T05:16:07;6.18;;;4.07;;
49610;SDS011;35515;48.766;9.176;2022-11-20T05:18:36;4.43;;;3.50;;
49610;SDS011;35515;48.766;9.176;2022-11-20T05:21:03;5.38;;;3.63;;
49610;SDS011;35515;48.766;9.176;2022-11-20T05:23:30;5.50;;;4.00;;
49610;SDS011;35515;48.766;9.176;2022-11-20T05:25:57;4.50;;;3.70;;
49610;SDS011;35515;48.766;9.176;2022-11-20T05:28:25;5.40;;;3.85;;
49610;SDS011;35515;48.766;9.176;2022-11-20T05:30:53;4.68;;;3.55;;
49610;SDS011;35515;48.766;9.176;2022-11-20T05:33:21;4.63;;;3.40;;
49610;SDS011;35515;48.766;9.176;2022-11-20T05:35:48;5.35;;;3.47;;
49610;SDS011;35515;48.766;9.176;2022-11-20T05:38:14;5.15;;;3.50;;
49610;SDS011;35515;48.766;9.176;2022-11-20T05:40:41;5.28;;;3.45;;
49610;SDS011;35515;48.766;9.176;2022-11-20T05:43:08;4.88;;;3.80;;
49610;SDS011;35515;48.766;9.176;2022-11-20T05:45:34;3.75;;;3.00;;
49610;SDS011;35515;48.766;9.176;2022-11-20T05:48:01;4.50;;;3.17;;
49610;SDS011;35515;48.766;9.176;2022-11-20T05:50:29;5.55;;;3.20;;
49610;SDS011;35515;48.766;9.176;2022-11-20T05:52:58;5.05;;;3.60;;
49610;SDS011;35515;48.766;9.176;2022-11-20T05:55:25;5.43;;;3.08;;
49610;SDS011;35515;48.766;9.176;2022-11-20T05:57:52;4.60;;;3.40;;
49610;SDS011;35515;48.766;9.176;2022-11-20T06:00:19;4.75;;;3.22;;
49610;SDS011;35515;48.766;9.176;2022-11-20T06:02:46;4.93;;;3.10;;
49610;SDS011;35515;48.766;9.176;2022-11-20T06:05:12;4.72;;;3.45;;
49610;SDS011;35515;48.766;9.176;2022-11-20T06:07:40;4.28;;;3.58;;
49610;SDS011;35515;48.766;9.176;2022-11-20T06:10:07;4.90;;;3.55;;
49610;SDS011;35515;48.766;9.176;2022-11-20T06:12:34;5.22;;;3.22;;
49610;SDS011;35515;48.766;9.176;2022-11-20T06:15:01;3.90;;;2.97;;
49610;SDS011;35515;48.766;9.176;2022-11-20T06:17:27;3.50;;;3.17;;
49610;SDS011;35515;48.766;9.176;2022-11-20T06:19:54;4.57;;;3.10;;
49610;SDS011;35515;48.766;9.176;2022-11-20T06:22:20;4.93;;;3.65;;
49610;SDS011;35515;48.766;9.176;2022-11-20T06:24:49;5.30;;;3.15;;
49610;SDS011;35515;48.766;9.176;2022-11-20T06:27:15;3.55;;;2.95;;
49610;SDS011;35515;48.766;9.176;2022-11-20T06:29:42;4.90;;;3.03;;
49610;SDS011;35515;48.766;9.176;2022-11-20T06:32:09;4.22;;;2.85;;
49610;SDS011;35515;48.766;9.176;2022-11-20T06:34:35;3.53;;;2.90;;
49610;SDS011;35515;48.766;9.176;2022-11-20T06:37:02;3.58;;;2.60;;
49610;SDS011;35515;48.766;9.176;2022-11-20T06:39:34;4.55;;;2.65;;
49610;SDS011;35515;48.766;9.176;2022-11-20T06:42:02;4.43;;;2.60;;
49610;SDS011;35515;48.766;9.176;2022-11-20T06:44:28;4.60;;;2.60;;
49610;SDS011;35515;48.766;9.176;2022-11-20T06:46:55;4.07;;;2.58;;
49610;SDS011;35515;48.766;9.176;2022-11-20T06:49:21;4.85;;;2.75;;
49610;SDS011;35515;48.766;9.176;2022-11-20T06:51:48;3.38;;;2.50;;
49610;SDS011;35515;48.766;9.176;2022-11-20T06:54:14;3.13;;;2.30;;
49610;SDS011;35515;48.766;9.176;2022-11-20T06:56:41;6.32;;;2.80;;
49610;SDS011;35515;48.766;9.176;2022-11-20T06:59:09;3.38;;;2.40;;
49610;SDS011;35515;48.766;9.176;2022-11-20T07:01:35;4.63;;;2.83;;
49610;SDS011;35515;48.766;9.176;2022-11-20T07:04:02;4.40;;;2.75;;
49610;SDS011;35515;48.766;9.176;2022-11-20T07:06:29;3.88;;;2.63;;
49610;SDS011;35515;48.766;9.176;2022-11-20T07:08:55;4.60;;;2.70;;
49610;SDS011;35515;48.766;9.176;2022-11-20T07:11:22;3.40;;;2.50;;
49610;SDS011;35515;48.766;9.176;2022-11-20T07:13:49;3.70;;;2.70;;
49610;SDS011;35515;48.766;9.176;2022-11-20T07:16:17;2.88;;;2.15;;
49610;SDS011;35515;48.766;9.176;2022-11-20T07:18:43;3.58;;;2.53;;
49610;SDS011;35515;48.766;9.176;2022-11-20T07:21:10;2.75;;;2.20;;
49610;SDS011;35515;48.766;9.176;2022-11-20T07:23:37;3.45;;;2.53;;
49610;SDS011;35515;48.766;9.176;2022-11-20T07:26:03;3.97;;;2.75;;
49610;SDS011;35515;48.766;9.176;2022-11-20T07:28:30;5.28;;;2.83;;
49610;SDS011;35515;48.766;9.176;2022-11-20T07:30:57;3.05;;;2.30;;
49610;SDS011;35515;48.766;9.176;2022-11-20T07:33:25;3.65;;;2.70;;
49610;SDS011;35515;48.766;9.176;2022-11-20T07:35:52;3.08;;;2.38;;
49610;SDS011;35515;48.766;9.176;2022-11-20T07:38:18;6.05;;;2.40;;
49610;SDS011;35515;48.766;9.176;2022-11-20T07:40:45;3.78;;;2.35;;
49610;SDS011;35515;48.766;9.176;2022-11-20T07:43:12;6.28;;;2.58;;
49610;SDS011;35515;48.766;9.176;2022-11-20T07:45:38;3.45;;;2.53;;
49610;SDS011;35515;48.766;9.176;2022-11-20T07:48:05;3.63;;;2.53;;
49610;SDS011;35515;48.766;9.176;2022-11-20T07:50:33;3.72;;;2.38;;
49610;SDS011;35515;48.766;9.176;2022-11-20T07:53:00;4.03;;;2.67;;
49610;SDS011;35515;48.766;9.176;2022-11-20T07:55:27;5.18;;;2.50;;
49610;SDS011;35515;48.766;9.176;2022-11-20T07:57:54;3.47;;;2.65;;
49610;SDS011;35515;48.766;9.176;2022-11-20T08:00:21;3.47;;;2.22;;
49610;SDS011;35515;48.766;9.176;2022-11-20T08:02:48;3.10;;;2.22;;
49610;SDS011;35515;48.766;9.176;2022-11-20T08:05:15;3.60;;;2.50;;
49610;SDS011;35515;48.766;9.176;2022-11-20T08:07:43;2.58;;;2.10;;
49610;SDS011;35515;48.766;9.176;2022-11-20T08:10:10;3.88;;;2.28;;
49610;SDS011;35515;48.766;9.176;2022-11-20T08:12:43;3.50;;;2.40;;
49610;SDS011;35515;48.766;9.176;2022-11-20T08:15:28;3.88;;;2.53;;
49610;SDS011;35515;48.766;9.176;2022-11-20T08:17:58;3.10;;;2.40;;
49610;SDS011;35515;48.766;9.176;2022-11-20T08:22:56;2.72;;;2.17;;
49610;SDS011;35515;48.766;9.176;2022-11-20T08:25:24;3.30;;;2.65;;
49610;SDS011;35515;48.766;9.176;2022-11-20T08:27:51;3.72;;;2.50;;
49610;SDS011;35515;48.766;9.176;2022-11-20T08:30:17;3.17;;;2.28;;
49610;SDS011;35515;48.766;9.176;2022-11-20T08:32:44;2.70;;;2.10;;
49610;SDS011;35515;48.766;9.176;2022-11-20T08:35:11;2.40;;;1.90;;
49610;SDS011;35515;48.766;9.176;2022-11-20T08:37:37;2.78;;;2.25;;
49610;SDS011;35515;48.766;9.176;2022-11-20T08:40:08;2.95;;;1.88;;
49610;SDS011;35515;48.766;9.176;2022-11-20T08:42:36;3.47;;;1.80;;
49610;SDS011;35515;48.766;9.176;2022-11-20T08:45:11;2.97;;;1.80;;
49610;SDS011;35515;48.766;9.176;2022-11-20T08:47:37;3.00;;;1.90;;
49610;SDS011;35515;48.766;9.176;2022-11-20T08:50:04;4.18;;;2.28;;
49610;SDS011;35515;48.766;9.176;2022-11-20T08:52:34;2.55;;;2.05;;
49610;SDS011;35515;48.766;9.176;2022-11-20T08:55:00;2.63;;;2.00;;
49610;SDS011;35515;48.766;9.176;2022-11-20T08:57:28;2.28;;;1.67;;
49610;SDS011;35515;48.766;9.176;2022-11-20T08:59:57;2.58;;;1.80;;
49610;SDS011;35515;48.766;9.176;2022-11-20T09:02:24;2.88;;;1.77;;
49610;SDS011;35515;48.766;9.176;2022-11-20T09:04:50;2.65;;;1.80;;
49610;SDS011;35515;48.766;9.176;2022-11-20T09:07:18;3.17;;;1.77;;
49610;SDS011;35515;48.766;9.176;2022-11-20T09:09:45;2.33;;;1.70;;
49610;SDS011;35515;48.766;9.176;2022-11-20T09:12:11;2.97;;;1.80;;
49610;SDS011;35515;48.766;9.176;2022-11-20T09:14:40;2.35;;;1.70;;
49610;SDS011;35515;48.766;9.176;2022-11-20T09:17:06;1.70;;;1.52;;
49610;SDS011;35515;48.766;9.176;2022-11-20T09:19:33;2.72;;;1.65;;
49610;SDS011;35515;48.766;9.176;2022-11-20T09:22:00;2.88;;;1.63;;
49610;SDS011;35515;48.766;9.176;2022-11-20T09:24:26;2.85;;;1.52;;
49610;SDS011;35515;48.766;9.176;2022-11-20T09:26:53;2.95;;;1.88;;
49610;SDS011;35515;48.766;9.176;2022-11-20T09:29:19;2.65;;;1.60;;
49610;SDS011;35515;48.766;9.176;2022-11-20T09:31:47;2.40;;;1.70;;
49610;SDS011;35515;48.766;9.176;2022-11-20T09:34:14;1.88;;;1.50;;
49610;SDS011;35515;48.766;9.176;2022-11-20T09:36:40;3.25;;;1.50;;
49610;SDS011;35515;48.766;9.176;2022-11-20T09:39:07;2.13;;;1.60;;
49610;SDS011;35515;48.766;9.176;2022-11-20T09:41:36;1.75;;;1.42;;
49610;SDS011;35515;48.766;9.176;2022-11-20T09:44:19;2.20;;;1.60;;
49610;SDS011;35515;48.766;9.176;2022-11-20T09:47:00;1.73;;;1.40;;
49610;SDS011;35515;48.766;9.176;2022-11-20T09:49:32;2.35;;;1.58;;
49610;SDS011;35515;48.766;9.176;2022-11-20T09:52:08;2.70;;;1.50;;
49610;SDS011;35515;48.766;9.176;2022-11-20T09:57:14;2.92;;;1.40;;
49610;SDS011;35515;48.766;9.176;2022-11-20T09:59:45;2.65;;;1.38;;
49610;SDS011;35515;48.766;9.176;2022-11-20T10:02:19;1.73;;;1.20;;
49610;SDS011;35515;48.766;9.176;2022-11-20T10:04:56;1.80;;;1.30;;
49610;SDS011;35515;48.766;9.176;2022-11-20T10:07:27;6.63;;;4.15;;
49610;SDS011;35515;48.766;9.176;2022-11-20T10:10:00;3.75;;;2.08;;
49610;SDS011;35515;48.766;9.176;2022-11-20T10:12:30;2.08;;;1.42;;
49610;SDS011;35515;48.766;9.176;2022-11-20T10:15:24;2.47;;;1.73;;
49610;SDS011;35515;48.766;9.176;2022-11-20T10:18:04;3.72;;;2.40;;
49610;SDS011;35515;48.766;9.176;2022-11-20T10:20:41;4.25;;;2.10;;
49610;SDS011;35515;48.766;9.176;2022-11-20T10:23:19;2.45;;;1.65;;
49610;SDS011;35515;48.766;9.176;2022-11-20T10:26:14;2.88;;;1.80;;
49610;SDS011;35515;48.766;9.176;2022-11-20T10:28:48;3.53;;;1.50;;
49610;SDS011;35515;48.766;9.176;2022-11-20T10:31:27;2.10;;;1.30;;
49610;SDS011;35515;48.766;9.176;2022-11-20T10:33:59;2.30;;;1.80;;
49610;SDS011;35515;48.766;9.176;2022-11-20T10:36:30;1.45;;;1.15;;
49610;SDS011;35515;48.766;9.176;2022-11-20T10:41:38;2.10;;;1.63;;
49610;SDS011;35515;48.766;9.176;2022-11-20T10:44:09;1.67;;;1.40;;
49610;SDS011;35515;48.766;9.176;2022-11-20T10:46:40;1.88;;;1.50;;
49610;SDS011;35515;48.766;9.176;2022-11-20T10:49:14;2.08;;;1.40;;
49610;SDS011;35515;48.766;9.176;2022-11-20T10:51:46;2.13;;;1.40;;
49610;SDS011;35515;48.766;9.176;2022-11-20T10:54:22;1.90;;;1.50;;
49610;SDS011;35515;48.766;9.176;2022-11-20T10:56:59;2.78;;;1.70;;
49610;SDS011;35515;48.766;9.176;2022-11-20T10:59:38;2.60;;;1.40;;
49610;SDS011;35515;48.766;9.176;2022-11-20T11:02:19;1.92;;;1.67;;
49610;SDS011;35515;48.766;9.176;2022-11-20T11:04:48;2.67;;;1.70;;
49610;SDS011;35515;48.766;9.176;2022-11-20T11:07:17;2.38;;;1.40;;
49610;SDS011;35515;48.766;9.176;2022-11-20T11:09:48;2.05;;;1.40;;
49610;SDS011;35515;48.766;9.176;2022-11-20T11:12:17;1.67;;;1.30;;
49610;SDS011;35515;48.766;9.176;2022-11-20T11:14:46;2.55;;;1.63;;
49610;SDS011;35515;48.766;9.176;2022-11-20T11:17:21;2.78;;;1.55;;
49610;SDS011;35515;48.766;9.176;2022-11-20T11:20:00;2.28;;;1.30;;
49610;SDS011;35515;48.766;9.176;2022-11-20T11:22:28;3.03;;;2.00;;
49610;SDS011;35515;48.766;9.176;2022-11-20T11:24:57;2.28;;;1.75;;
49610;SDS011;35515;48.766;9.176;2022-11-20T11:27:24;3.00;;;1.90;;
49610;SDS011;35515;48.766;9.176;2022-11-20T11:30:00;2.90;;;1.88;;
49610;SDS011;35515;48.766;9.176;2022-11-20T11:32:29;2.58;;;1.83;;
49610;SDS011;35515;48.766;9.176;2022-11-20T11:35:01;4.22;;;1.55;;
49610;SDS011;35515;48.766;9.176;2022-11-20T11:37:33;2.20;;;1.65;;
49610;SDS011;35515;48.766;9.176;2022-11-20T11:40:02;2.78;;;1.88;;
49610;SDS011;35515;48.766;9.176;2022-11-20T11:42:30;1.98;;;1.77;;
49610;SDS011;35515;48.766;9.176;2022-11-20T11:44:58;2.17;;;1.77;;
49610;SDS011;35515;48.766;9.176;2022-11-20T11:47:31;4.22;;;1.88;;
49610;SDS011;35515;48.766;9.176;2022-11-20T11:50:07;5.82;;;2.45;;
49610;SDS011;35515;48.766;9.176;2022-11-20T11:52:42;3.40;;;2.08;;
49610;SDS011;35515;48.766;9.176;2022-11-20T11:55:14;3.40;;;2.30;;
49610;SDS011;35515;48.766;9.176;2022-11-20T11:57:49;3.08;;;2.10;;
49610;SDS011;35515;48.766;9.176;2022-11-20T12:00:20;4.30;;;2.10;;
49610;SDS011;35515;48.766;9.176;2022-11-20T12:02:56;4.82;;;2.03;;
49610;SDS011;35515;48.766;9.176;2022-11-20T12:05:32;5.72;;;2.10;;
49610;SDS011;35515;48.766;9.176;2022-11-20T12:08:05;4.25;;;2.50;;
49610;SDS011;35515;48.766;9.176;2022-11-20T12:10:43;5.03;;;3.40;;
49610;SDS011;35515;48.766;9.176;2022-11-20T12:13:20;5.95;;;3.05;;
49610;SDS011;35515;48.766;9.176;2022-11-20T12:15:53;3.38;;;2.30;;
49610;SDS011;35515;48.766;9.176;2022-11-20T12:18:20;3.97;;;2.15;;
49610;SDS011;35515;48.766;9.176;2022-11-20T12:20:53;5.43;;;2.25;;
49610;SDS011;35515;48.766;9.176;2022-11-20T12:23:45;6.85;;;2.35;;
49610;SDS011;35515;48.766;9.176;2022-11-20T12:26:24;2.33;;;1.67;;
49610;SDS011;35515;48.766;9.176;2022-11-20T12:29:03;4.72;;;1.70;;
49610;SDS011;35515;48.766;9.176;2022-11-20T12:31:53;3.45;;;1.63;;
49610;SDS011;35515;48.766;9.176;2022-11-20T12:34:47;5.53;;;1.90;;
49610;SDS011;35515;48.766;9.176;2022-11-20T12:37:30;3.65;;;1.75;;
49610;SDS011;35515;48.766;9.176;2022-11-20T12:40:08;3.33;;;1.65;;
49610;SDS011;35515;48.766;9.176;2022-11-20T12:42:50;3.17;;;1.45;;
49610;SDS011;35515;48.766;9.176;2022-11-20T12:48:46;1.38;;;1.05;;
49610;SDS011;35515;48.766;9.176;2022-11-20T12:51:31;3.10;;;1.50;;
49610;SDS011;35515;48.766;9.176;2022-11-20T12:54:11;1.48;;;1.10;;
49610;SDS011;35515;48.766;9.176;2022-11-20T12:57:15;3.13;;;1.43;;
49610;SDS011;35515;48.766;9.176;2022-11-20T12:59:52;2.47;;;1.17;;
49610;SDS011;35515;48.766;9.176;2022-11-20T13:02:33;4.40;;;1.38;;
49610;SDS011;35515;48.766;9.176;2022-11-20T13:05:15;4.90;;;1.90;;
49610;SDS011;35515;48.766;9.176;2022-11-20T13:07:46;2.63;;;1.45;;
49610;SDS011;35515;48.766;9.176;2022-11-20T13:10:16;3.15;;;1.38;;
49610;SDS011;35515;48.766;9.176;2022-11-20T13:12:49;1.30;;;1.05;;
49610;SDS011;35515;48.766;9.176;2022-11-20T13:15:26;2.63;;;1.40;;
49610;SDS011;35515;48.766;9.176;2022-11-20T13:18:06;1.23;;;1.10;;
49610;SDS011;35515;48.766;9.176;2022-11-20T13:20:36;2.22;;;1.40;;
49610;SDS011;35515;48.766;9.176;2022-11-20T13:23:08;4.13;;;1.75;;
49610;SDS011;35515;48.766;9.176;2022-11-20T13:25:37;2.10;;;1.33;;
49610;SDS011;35515;48.766;9.176;2022-11-20T13:30:53;3.03;;;1.30;;
49610;SDS011;35515;48.766;9.176;2022-11-20T13:33:22;3.42;;;1.40;;
49610;SDS011;35515;48.766;9.176;2022-11-20T13:35:54;1.50;;;1.40;;
49610;SDS011;35515;48.766;9.176;2022-11-20T13:38:22;3.00;;;1.30;;
49610;SDS011;35515;48.766;9.176;2022-11-20T13:40:54;3.35;;;1.38;;
49610;SDS011;35515;48.766;9.176;2022-11-20T13:43:23;2.22;;;1.45;;
49610;SDS011;35515;48.766;9.176;2022-11-20T13:45:55;1.38;;;1.23;;
49610;SDS011;35515;48.766;9.176;2022-11-20T13:48:24;5.95;;;1.73;;
49610;SDS011;35515;48.766;9.176;2022-11-20T13:50:57;2.78;;;1.50;;
49610;SDS011;35515;48.766;9.176;2022-11-20T13:53:36;1.92;;;1.42;;
49610;SDS011;35515;48.766;9.176;2022-11-20T13:56:36;1.55;;;1.23;;
49610;SDS011;35515;48.766;9.176;2022-11-20T13:59:16;3.30;;;1.77;;
49610;SDS011;35515;48.766;9.176;2022-11-20T14:01:57;2.55;;;1.65;;
49610;SDS011;35515;48.766;9.176;2022-11-20T14:04:25;2.65;;;1.20;;
49610;SDS011;35515;48.766;9.176;2022-11-20T14:06:54;3.05;;;1.40;;
49610;SDS011;35515;48.766;9.176;2022-11-20T14:09:25;2.47;;;1.30;;
49610;SDS011;35515;48.766;9.176;2022-11-20T14:11:54;3.13;;;1.48;;
49610;SDS011;35515;48.766;9.176;2022-11-20T14:14:22;2.92;;;1.40;;
49610;SDS011;35515;48.766;9.176;2022-11-20T14:16:50;2.25;;;1.45;;
49610;SDS011;35515;48.766;9.176;2022-11-20T14:19:27;4.93;;;2.33;;
49610;SDS011;35515;48.766;9.176;2022-11-20T14:22:16;4.70;;;2.80;;
49610;SDS011;35515;48.766;9.176;2022-11-20T14:24:45;4.18;;;2.60;;
49610;SDS011;35515;48.766;9.176;2022-11-20T14:27:14;5.72;;;2.97;;
49610;SDS011;35515;48.766;9.176;2022-11-20T14:29:42;6.00;;;2.83;;
49610;SDS011;35515;48.766;9.176;2022-11-20T14:32:10;4.45;;;2.83;;
49610;SDS011;35515;48.766;9.176;2022-11-20T14:34:40;5.53;;;2.40;;
49610;SDS011;35515;48.766;9.176;2022-11-20T14:37:10;4.43;;;2.58;;
49610;SDS011;35515;48.766;9.176;2022-11-20T14:39:40;3.30;;;2.08;;
49610;SDS011;35515;48.766;9.176;2022-11-20T14:42:16;2.95;;;1.70;;
49610;SDS011;35515;48.766;9.176;2022-11-20T14:44:43;5.90;;;1.67;;
49610;SDS011;35515;48.766;9.176;2022-11-20T14:47:11;3.72;;;1.33;;
49610;SDS011;35515;48.766;9.176;2022-11-20T14:49:39;2.50;;;1.70;;
49610;SDS011;35515;48.766;9.176;2022-11-20T14:52:11;2.72;;;1.60;;
49610;SDS011;35515;48.766;9.176;2022-11-20T14:54:43;3.42;;;1.80;;
49610;SDS011;35515;48.766;9.176;2022-11-20T14:57:22;5.97;;;1.70;;
49610;SDS011;35515;48.766;9.176;2022-11-20T14:59:50;2.78;;;1.50;;
49610;SDS011;35515;48.766;9.176;2022-11-20T15:02:17;3.08;;;1.60;;
49610;SDS011;35515;48.766;9.176;2022-11-20T15:04:44;3.67;;;1.40;;
49610;SDS011;35515;48.766;9.176;2022-11-20T15:07:22;2.33;;;1.50;;
49610;SDS011;35515;48.766;9.176;2022-11-20T15:09:59;3.92;;;1.70;;
49610;SDS011;35515;48.766;9.176;2022-11-20T15:12:27;3.25;;;1.77;;
49610;SDS011;35515;48.766;9.176;2022-11-20T15:14:56;3.88;;;1.65;;
49610;SDS011;35515;48.766;9.176;2022-11-20T15:17:22;2.53;;;1.60;;